Latest Weather Observations for Larapuna (Eddystone Point)

IDT60801

Issued at 1:31 pm EST Tuesday 31 May 2016 (issued every 30 minutes, with the page automatically refreshed every 10 minutes)

About weather observations | Map of weather stations | Latest weather observations for TAS | Other Formats
Station Details ID: 092045 Name: LARAPUNA (EDDYSTONE POINT) Lat: -40.99 Lon: 148.35 Height: 19.7 m
Data from the previous 72 hours. | See also: Recent months at Larapuna (Eddystone Point)
Date/Time
EST
Temp
°C
App
Temp
°C
Dew
Point
Rel
Hum
%
Delta-T
°C
Wind Press
QNH
hPa
Press
MSL
hPa
Rain
since 9 am
mm
Dir
 
Spd
km/h
Gust
km/h
Spd
kts
Gust
kts
31/01:30pm 13.5 9.0 8.6 72 2.4 SSE 22 26 12 14 1031.9 1031.9 0.0
31/01:00pm 13.7 9.5 8.3 70 2.7 SSE 20 24 11 13 1032.2 1032.2 0.0
31/12:30pm 13.7 9.9 9.0 73 2.4 SSE 19 24 10 13 1032.4 1032.4 0.0
31/12:00pm 13.6 9.6 8.9 73 2.4 SSE 20 24 11 13 1032.6 1032.6 0.0
31/11:30am 13.9 10.1 8.9 72 2.5 SSE 19 22 10 12 1032.9 1032.9 0.0
31/11:00am 13.6 9.8 8.9 73 2.4 S 19 22 10 12 1033.3 1033.3 0.0
31/10:30am 13.5 9.7 9.2 75 2.2 S 19 22 10 12 1033.5 1033.5 0.0
31/10:00am 12.7 8.9 9.0 78 1.8 S 19 22 10 12 1033.5 1033.5 0.0
31/09:30am 11.9 8.1 8.9 82 1.5 SSW 19 22 10 12 1033.4 1033.4 0.0
31/09:00am 10.7 6.7 8.3 85 1.2 SSW 19 20 10 11 1033.3 1033.3 0.0
31/08:30am 9.7 5.9 7.6 87 1.0 SSW 17 20 9 11 1033.2 1033.2 0.0
31/08:00am 9.0 5.1 7.3 89 0.8 SSW 17 20 9 11 1032.9 1032.9 0.0
31/07:30am 8.4 4.4 6.7 89 0.8 SSW 17 19 9 10 1032.6 1032.6 0.0
31/07:00am 8.4 4.4 6.7 89 0.8 SW 17 20 9 11 1032.2 1032.2 0.0
31/06:30am 8.7 4.8 7.0 89 0.8 SSW 17 20 9 11 1031.9 1031.9 0.0
31/06:00am 8.7 4.7 6.8 88 0.9 SSW 17 19 9 10 1031.7 1031.7 0.0
31/05:30am 8.6 4.6 6.7 88 0.9 SSW 17 19 9 10 1031.5 1031.6 0.0
31/05:00am 9.0 4.7 7.1 88 0.9 SSW 19 20 10 11 1031.3 1031.4 0.0
31/04:30am 9.1 4.8 6.9 86 1.0 SSW 19 22 10 12 1031.1 1031.2 0.0
31/04:00am 9.7 5.3 7.6 87 1.0 S 20 28 11 15 1031.0 1031.1 0.0
31/03:30am 10.0 4.9 7.8 86 1.1 SSW 24 30 13 16 1031.1 1031.2 0.0
31/03:00am 10.1 4.7 8.0 87 1.0 S 26 32 14 17 1031.0 1031.1 0.0
31/02:30am 10.2 5.3 8.3 88 0.9 S 24 32 13 17 1031.2 1031.3 0.0
31/02:00am 9.6 5.3 7.7 88 0.9 SSW 20 26 11 14 1031.0 1031.1 0.0
31/01:30am 9.8 5.5 7.9 88 0.9 SSW 20 26 11 14 1030.9 1031.0 0.0
31/01:00am 9.6 5.3 7.7 88 0.9 SSW 20 24 11 13 1030.9 1031.0 0.0
31/12:30am 9.2 5.0 7.3 88 0.9 SW 19 20 10 11 1031.0 1031.1 0.0
31/12:00am 9.3 5.8 7.3 87 0.9 SW 15 19 8 10 1031.0 1031.1 0.0
 
Date/Time
EST
Temp
°C
App
Temp
°C
Dew
Point
Rel
Hum
%
Delta-T
°C
Wind Press
QNH
hPa
Press
MSL
hPa
Rain
since 9 am
mm
Dir
 
Spd
km/h
Gust
km/h
Spd
kts
Gust
kts
30/11:30pm 9.1 5.5 6.7 85 1.1 SW 15 20 8 11 1031.0 1031.1 0.0
30/11:00pm 9.9 5.8 7.7 86 1.0 SSW 19 22 10 12 1030.8 1030.9 0.0
30/10:30pm 10.3 6.6 7.9 85 1.2 SSW 17 20 9 11 1030.9 1031.0 0.0
30/10:00pm 10.8 7.0 7.7 81 1.5 SSW 17 20 9 11 1030.8 1030.9 0.0
30/09:30pm 11.5 7.3 8.2 80 1.6 SSE 20 24 11 13 1030.6 1030.7 0.0
30/09:00pm 11.4 6.8 8.3 81 1.5 SSW 22 26 12 14 1030.3 1030.4 0.0
30/08:30pm 11.3 6.7 8.0 80 1.6 SSW 22 26 12 14 1030.1 1030.2 0.0
30/08:00pm 12.0 7.7 7.7 75 2.1 S 20 24 11 13 1029.9 1030.0 0.0
30/07:30pm 12.2 8.0 7.3 72 2.4 SSE 19 22 10 12 1029.7 1029.8 0.0
30/07:00pm 12.0 8.1 7.1 72 2.3 SSE 17 20 9 11 1029.5 1029.6 0.0
30/06:30pm 12.0 8.1 7.3 73 2.3 SSE 17 20 9 11 1029.2 1029.3 0.0
30/06:00pm 11.6 8.6 7.9 78 1.8 ESE 13 19 7 10 1029.0 1029.1 0.0
30/05:30pm 11.7 7.4 8.0 78 1.8 ESE 20 26 11 14 1028.5 1028.6 0.0
30/05:00pm 11.9 8.6 8.2 78 1.8 ESE 15 22 8 12 1028.4 1028.5 0.0
30/04:30pm 12.1 8.5 8.4 78 1.8 ESE 17 20 9 11 1028.1 1028.2 0.0
30/04:00pm 12.1 9.3 8.4 78 1.8 ESE 13 17 7 9 1027.9 1028.0 0.0
30/03:30pm 12.3 8.8 8.6 78 1.8 ESE 17 20 9 11 1027.7 1027.8 0.0
30/03:00pm 12.5 8.9 8.2 75 2.1 SE 17 22 9 12 1027.5 1027.6 0.0
30/02:30pm 13.4 8.5 8.3 71 2.5 SSE 24 30 13 16 1027.2 1027.3 0.0
30/02:00pm 13.5 8.4 7.7 68 2.8 SSE 24 32 13 17 1027.1 1027.2 0.0
30/01:30pm 13.5 8.2 8.4 71 2.5 SSE 26 32 14 17 1026.9 1026.9 0.0
30/01:00pm 13.4 8.4 8.0 70 2.7 SSE 24 28 13 15 1027.0 1027.0 0.0
30/12:30pm 13.5 8.6 8.4 71 2.5 S 24 28 13 15 1027.0 1027.0 0.0
30/12:00pm 13.7 8.3 7.9 68 2.9 S 26 30 14 16 1027.1 1027.2 0.0
30/11:30am 12.7 7.6 7.6 71 2.5 S 24 30 13 16 1027.3 1027.4 0.0
30/11:00am 14.1 9.5 8.3 68 2.9 S 22 30 12 16 1027.5 1027.6 0.0
30/10:30am 12.0 6.4 7.1 72 2.4 S 26 33 14 18 1027.5 1027.6 0.0
30/10:00am 11.9 6.6 7.0 72 2.3 S 24 30 13 16 1027.1 1027.2 0.0
30/09:30am 11.7 6.5 7.2 74 2.2 S 24 30 13 16 1026.8 1026.8 0.0
30/09:00am 11.4 5.7 6.7 73 2.2 S 26 32 14 17 1026.6 1026.6 0.0
30/08:30am 11.0 4.9 6.6 74 2.1 S 28 33 15 18 1026.3 1026.3 0.0
30/08:00am 9.8 4.9 6.9 82 1.4 SSW 22 28 12 15 1025.9 1025.9 0.0
30/07:30am 9.2 4.2 6.3 82 1.3 SSW 22 28 12 15 1025.5 1025.5 0.0
30/07:00am 9.5 4.1 6.4 81 1.4 SW 24 28 13 15 1025.2 1025.2 0.0
30/06:30am 10.1 4.8 6.8 80 1.6 SSW 24 30 13 16 1024.7 1024.7 0.0
30/06:00am 10.8 4.8 6.9 77 1.8 S 28 35 15 19 1024.2 1024.2 0.0
30/05:30am 9.9 4.7 7.2 83 1.3 SSW 24 30 13 16 1023.8 1023.8 0.0
30/05:00am 9.2 4.6 6.6 84 1.2 SSW 20 24 11 13 1023.6 1023.6 0.0
30/04:30am 8.7 5.5 5.3 79 1.5 WSW 11 15 6 8 1023.4 1023.4 0.0
30/04:00am 9.7 5.3 6.4 80 1.5 SW 19 22 10 12 1023.0 1023.0 0.0
30/03:30am 10.2 5.6 6.5 78 1.7 SSW 20 28 11 15 1022.8 1022.8 0.0
30/03:00am 10.6 4.9 6.7 77 1.8 S 26 30 14 16 1022.6 1022.6 0.0
30/02:30am 9.8 5.3 6.9 82 1.4 SSW 20 24 11 13 1022.4 1022.4 0.0
30/02:00am 9.8 4.9 6.7 81 1.4 SSW 22 26 12 14 1022.1 1022.1 0.0
30/01:30am 9.6 4.1 6.1 79 1.6 SW 24 28 13 15 1021.8 1021.8 0.0
30/01:00am 10.0 5.0 6.3 78 1.7 SW 22 26 12 14 1021.6 1021.6 0.0
30/12:30am 10.6 5.1 7.5 81 1.5 SSW 26 32 14 17 1021.2 1021.2 0.0
30/12:00am 10.2 5.3 6.9 80 1.6 SW 22 28 12 15 1021.2 1021.2 0.0
 
Date/Time
EST
Temp
°C
App
Temp
°C
Dew
Point
Rel
Hum
%
Delta-T
°C
Wind Press
QNH
hPa
Press
MSL
hPa
Rain
since 9 am
mm
Dir
 
Spd
km/h
Gust
km/h
Spd
kts
Gust
kts
29/11:30pm 10.8 4.4 6.9 77 1.8 S 30 33 16 18 1020.9 1020.9 0.0
29/11:00pm 10.8 4.4 7.1 78 1.8 SSW 30 37 16 20 1020.7 1020.7 0.0
29/10:30pm 11.2 4.7 8.1 81 1.5 SSW 32 41 17 22 1020.4 1020.4 0.0
29/10:00pm 11.5 3.9 7.6 77 1.9 S 37 44 20 24 1020.2 1020.2 0.0
29/09:30pm 11.6 4.5 7.9 78 1.8 S 35 43 19 23 1020.0 1020.0 0.0
29/09:00pm 11.4 4.6 7.5 77 1.9 S 33 41 18 22 1019.7 1019.7 0.0
29/08:30pm 11.6 4.0 7.7 77 1.9 S 37 43 20 23 1019.5 1019.5 0.0
29/08:00pm 11.1 4.4 7.4 78 1.8 SSW 32 39 17 21 1019.2 1019.2 0.0
29/07:30pm 11.2 5.7 7.5 78 1.8 SSW 26 32 14 17 1018.8 1018.8 0.0
29/07:00pm 11.2 6.1 7.7 79 1.7 SSW 24 28 13 15 1018.3 1018.3 0.0
29/06:30pm 11.5 6.1 7.8 78 1.8 SSW 26 32 14 17 1017.8 1017.8 0.0
29/06:00pm 11.4 5.9 7.5 77 1.9 SSW 26 30 14 16 1017.4 1017.4 0.0
29/05:30pm 11.9 6.1 7.8 76 2.0 SSW 28 32 15 17 1017.0 1017.0 0.0
29/05:00pm 12.2 7.3 8.5 78 1.8 SSE 24 32 13 17 1016.7 1016.7 0.0
29/04:30pm 12.1 5.0 8.2 77 1.9 SSE 35 44 19 24 1016.4 1016.4 0.0
29/04:27pm 12.3 5.5 7.6 73 2.3 S 33 44 18 24 1016.4 1016.4 0.0
29/04:00pm 13.9 8.1 7.9 67 3.0 S 28 32 15 17 1015.9 1015.9 0.0
29/03:30pm 13.6 8.1 7.4 66 3.0 SSW 26 33 14 18 1015.5 1015.5 0.0
29/03:00pm 12.8 7.0 7.9 72 2.4 SSW 28 35 15 19 1015.2 1015.2 0.0
29/02:30pm 12.7 6.9 7.8 72 2.4 S 28 41 15 22 1014.9 1014.9 0.0
29/02:00pm 14.0 9.3 7.8 66 3.1 S 22 28 12 15 1014.5 1014.5 0.0
29/01:30pm 13.3 8.5 7.5 68 2.8 S 22 30 12 16 1014.2 1014.2 0.0
29/01:00pm 13.3 7.6 6.9 65 3.1 SSW 26 32 14 17 1014.0 1014.0 0.0
29/12:30pm 14.2 9.5 7.7 65 3.2 S 22 28 12 15 1013.9 1013.9 0.0
29/12:00pm 14.2 8.3 7.5 64 3.3 SSW 28 32 15 17 1014.1 1014.1 0.0
29/11:30am 14.2 10.1 7.9 66 3.1 SW 19 24 10 13 1014.0 1014.0 0.0
29/11:00am 13.0 8.6 6.6 65 3.1 SW 19 24 10 13 1014.1 1014.1 0.0
29/10:30am 12.8 8.3 6.2 64 3.1 SW 19 22 10 12 1014.1 1014.1 0.0
29/10:00am 12.0 7.8 5.6 65 3.0 SW 17 24 9 13 1013.9 1013.9 0.0
29/09:30am 10.4 7.0 6.0 74 2.0 WSW 13 17 7 9 1013.8 1013.8 0.0
29/09:00am 9.4 6.2 5.2 75 1.9 SW 11 15 6 8 1013.4 1013.4 0.2
29/08:30am 9.5 5.7 5.9 78 1.7 SW 15 17 8 9 1013.2 1013.2 0.2
29/08:00am 9.5 5.0 6.0 79 1.6 SW 19 22 10 12 1012.9 1012.9 0.2
29/07:30am 8.3 4.7 5.1 80 1.4 SW 13 15 7 8 1012.6 1012.6 0.2
29/07:00am 7.6 3.1 4.2 79 1.5 WSW 17 19 9 10 1012.4 1012.4 0.2
29/06:30am 6.7 2.4 3.5 80 1.4 WSW 15 19 8 10 1012.1 1012.1 0.2
29/06:00am 6.8 2.1 3.4 79 1.4 WSW 17 19 9 10 1011.7 1011.7 0.2
29/05:30am 8.4 3.8 5.5 82 1.3 SW 19 24 10 13 1011.4 1011.4 0.2
29/05:00am 8.3 3.6 5.1 80 1.4 SSW 19 24 10 13 1011.1 1011.1 0.2
29/04:30am 8.1 3.1 4.7 79 1.5 SSW 20 24 11 13 1010.8 1010.8 0.2
29/04:00am 8.6 3.4 5.4 80 1.4 SSW 22 28 12 15 1010.6 1010.6 0.2
29/03:30am 8.6 3.8 5.4 80 1.4 SW 20 26 11 14 1010.4 1010.4 0.2
29/03:00am 8.5 4.2 5.4 81 1.4 SW 17 20 9 11 1010.3 1010.3 0.2
29/02:30am 8.9 4.7 5.8 81 1.4 SSW 17 22 9 12 1010.2 1010.2 0.2
29/02:00am 8.4 4.9 5.3 81 1.4 SW 13 15 7 8 1010.2 1010.2 0.2
29/01:30am 9.2 4.6 6.5 83 1.3 SSW 20 24 11 13 1009.9 1009.9 0.2
29/01:00am 8.3 4.1 5.9 85 1.1 SW 17 20 9 11 1009.7 1009.7 0.2
29/12:30am 8.2 5.1 5.7 84 1.1 SW 11 13 6 7 1009.8 1009.8 0.2
29/12:00am 7.8 4.7 5.4 85 1.1 SW 11 13 6 7 1009.7 1009.7 0.2
 
Date/Time
EST
Temp
°C
App
Temp
°C
Dew
Point
Rel
Hum
%
Delta-T
°C
Wind Press
QNH
hPa
Press
MSL
hPa
Rain
since 9 am
mm
Dir
 
Spd
km/h
Gust
km/h
Spd
kts
Gust
kts
28/11:30pm 8.0 5.7 5.8 86 1.0 SW 7 9 4 5 1009.7 1009.7 0.2
28/11:00pm 8.6 6.1 6.4 86 1.0 SW 9 11 5 6 1009.7 1009.7 0.2
28/10:30pm 9.0 6.6 6.8 86 1.0 SW 9 9 5 5 1009.5 1009.5 0.2
28/10:00pm 8.4 5.9 6.4 87 0.9 SW 9 11 5 6 1009.6 1009.6 0.2
28/09:30pm 9.0 6.6 6.8 86 1.0 SSW 9 11 5 6 1009.5 1009.5 0.2
28/09:00pm 8.9 6.3 6.3 84 1.2 SW 9 11 5 6 1009.5 1009.5 0.2
28/08:30pm 8.8 6.2 5.9 82 1.3 WSW 9 11 5 6 1009.3 1009.3 0.2
28/08:00pm 8.5 5.0 5.4 81 1.4 WSW 13 15 7 8 1009.1 1009.1 0.2
28/07:30pm 9.3 6.0 6.2 81 1.4 SW 13 17 7 9 1008.9 1008.9 0.2
28/07:00pm 9.4 5.4 5.0 74 2.0 WNW 15 17 8 9 1008.9 1008.9 0.2
28/06:30pm 9.3 5.3 4.7 73 2.0 NW 15 17 8 9 1008.6 1008.6 0.2
28/06:00pm 9.4 5.3 4.6 72 2.1 WNW 15 17 8 9 1008.3 1008.3 0.2
28/05:30pm 10.2 7.4 5.0 70 2.4 W 9 11 5 6 1007.9 1007.9 0.2
28/05:00pm 10.8 8.6 5.1 68 2.6 WSW 6 9 3 5 1007.7 1007.7 0.2
28/04:30pm 11.6 8.4 5.0 64 3.0 S 11 15 6 8 1007.5 1007.5 0.2
28/04:00pm 11.7 7.8 5.3 65 3.0 SSE 15 19 8 10 1007.3 1007.3 0.2
28/03:30pm 12.7 9.0 6.1 64 3.1 SSE 15 17 8 9 1007.0 1007.0 0.2
28/03:00pm 13.1 9.3 5.8 61 3.5 SSE 15 19 8 10 1006.7 1006.7 0.2
28/02:30pm 13.4 8.8 5.8 60 3.6 SSE 19 22 10 12 1006.4 1006.4 0.2
28/02:00pm 13.3 8.6 5.0 57 3.9 SSE 19 22 10 12 1006.4 1006.4 0.2

Other Formats:

Comma delimited format used in spreadsheet applications
http://www.bom.gov.au/fwo/IDT60801/IDT60801.94983.axf

JavaScript Object Notation format (JSON) in row-major order
http://www.bom.gov.au/fwo/IDT60801/IDT60801.94983.json